Аэропорт: Елизово. Петропавловск-Камчатский

ICAO: UHPP

METAR:
2020-06-01 00:30:00
UHPP 010030Z 20002MPS 9999 NSC 16/00 Q1010 R34L/CLRD70 NOSIG RMK QFE754/1005
METAR:
2020-05-31 22:55:00
TAF UHPP 312255Z 0100/0206 19003G12MPS 9999 NSC TEMPO 0100/0108 27003G12MPS BKN030CB